createdAt,value
2022-08-03T00:00:26.617Z,100.00
2022-08-03T00:02:54.020Z,100.00
2022-08-03T00:05:21.292Z,100.00
2022-08-03T00:07:48.592Z,100.00
2022-08-03T00:10:16.813Z,100.00
2022-08-03T00:12:46.644Z,100.00
2022-08-03T00:15:16.798Z,100.00
2022-08-03T00:17:52.630Z,100.00
2022-08-03T00:20:21.391Z,100.00
2022-08-03T00:22:48.446Z,100.00
2022-08-03T00:25:16.684Z,100.00
2022-08-03T00:27:43.982Z,100.00
2022-08-03T00:30:12.703Z,100.00
2022-08-03T00:32:45.005Z,100.00
2022-08-03T00:35:26.609Z,100.00
2022-08-03T00:38:02.245Z,100.00
2022-08-03T00:40:29.941Z,100.00
2022-08-03T00:42:58.419Z,100.00
2022-08-03T00:45:28.710Z,100.00
2022-08-03T00:47:57.589Z,100.00
2022-08-03T00:50:26.100Z,100.00
2022-08-03T00:52:58.348Z,100.00
2022-08-03T00:55:25.999Z,100.00
2022-08-03T00:58:00.152Z,100.00
2022-08-03T01:00:28.984Z,100.00
2022-08-03T01:02:58.428Z,100.00
2022-08-03T01:05:25.911Z,100.00
2022-08-03T01:08:04.957Z,100.00
2022-08-03T01:11:18.010Z,100.00
2022-08-03T01:14:03.736Z,100.00
2022-08-03T01:16:54.850Z,100.00
2022-08-03T01:19:36.913Z,100.00
2022-08-03T01:25:26.363Z,100.00
2022-08-03T01:28:20.454Z,100.00
2022-08-03T01:30:52.494Z,100.00
2022-08-03T01:33:24.735Z,100.00
2022-08-03T01:35:59.323Z,100.00
2022-08-03T01:38:32.585Z,100.00
2022-08-03T01:41:04.781Z,100.00
2022-08-03T01:43:58.960Z,100.00
2022-08-03T01:46:29.500Z,100.00
2022-08-03T01:48:58.074Z,100.00
2022-08-03T01:51:58.401Z,100.00
2022-08-03T01:54:27.554Z,100.00
2022-08-03T01:56:57.755Z,100.00
2022-08-03T01:59:28.798Z,100.00
2022-08-03T02:02:28.997Z,100.00
2022-08-03T02:04:50.702Z,100.00
2022-08-03T02:07:19.824Z,100.00
2022-08-03T02:09:52.531Z,100.00
2022-08-03T02:12:26.355Z,100.00
2022-08-03T02:15:07.379Z,100.00
2022-08-03T02:17:39.175Z,100.00
2022-08-03T02:20:11.267Z,100.00
2022-08-03T02:22:40.785Z,100.00
2022-08-03T02:25:09.289Z,100.00
2022-08-03T02:27:43.200Z,100.00
2022-08-03T02:30:12.825Z,100.00
2022-08-03T02:32:44.536Z,100.00
2022-08-03T02:35:13.897Z,100.00
2022-08-03T02:37:49.623Z,100.00
2022-08-03T02:40:20.567Z,100.00
2022-08-03T02:42:51.577Z,100.00
2022-08-03T02:45:21.095Z,100.00
2022-08-03T02:47:54.986Z,100.00
2022-08-03T02:50:35.286Z,100.00
2022-08-03T02:53:04.584Z,100.00
2022-08-03T02:55:45.680Z,100.00
2022-08-03T02:58:14.490Z,100.00
2022-08-03T03:00:49.651Z,100.00
2022-08-03T03:03:19.008Z,100.00
2022-08-03T03:05:56.761Z,100.00
2022-08-03T03:08:28.746Z,100.00
2022-08-03T03:10:59.617Z,100.00
2022-08-03T03:13:30.086Z,100.00
2022-08-03T03:16:17.201Z,100.00
2022-08-03T03:18:48.139Z,100.00
2022-08-03T03:21:19.275Z,100.00
2022-08-03T03:23:47.521Z,100.00
2022-08-03T03:26:15.434Z,100.00
2022-08-03T03:28:51.348Z,100.00
2022-08-03T03:31:18.487Z,100.00
2022-08-03T03:33:54.905Z,100.00
2022-08-03T03:36:22.432Z,100.00
2022-08-03T03:38:49.924Z,100.00
2022-08-03T03:41:23.994Z,100.00
2022-08-03T03:43:51.180Z,100.00
2022-08-03T03:46:19.137Z,100.00
2022-08-03T03:48:47.988Z,100.00
2022-08-03T03:51:17.720Z,100.00
2022-08-03T03:53:56.057Z,100.00
2022-08-03T03:56:23.264Z,100.00
2022-08-03T03:58:50.440Z,100.00
2022-08-03T04:01:19.554Z,100.00
2022-08-03T04:04:25.750Z,100.00
2022-08-03T04:11:11.793Z,100.00
2022-08-03T04:13:50.870Z,100.00
2022-08-03T04:16:22.817Z,100.00
2022-08-03T04:18:53.961Z,100.00
2022-08-03T04:21:29.184Z,100.00
2022-08-03T04:24:03.870Z,100.00
2022-08-03T04:26:36.503Z,100.00
2022-08-03T04:29:08.273Z,100.00
2022-08-03T04:31:37.046Z,100.00
2022-08-03T04:34:08.768Z,100.00
2022-08-03T04:37:02.025Z,100.00
2022-08-03T04:40:01.962Z,100.00
2022-08-03T04:42:43.812Z,100.00
2022-08-03T04:45:13.741Z,100.00
2022-08-03T04:47:42.681Z,100.00
2022-08-03T04:50:13.050Z,100.00
2022-08-03T04:52:44.866Z,100.00
2022-08-03T04:55:12.341Z,100.00
2022-08-03T04:57:39.415Z,100.00
2022-08-03T05:00:07.671Z,100.00
2022-08-03T05:02:35.188Z,100.00
2022-08-03T05:05:03.299Z,100.00
2022-08-03T05:07:36.371Z,100.00
2022-08-03T05:10:15.157Z,100.00
2022-08-03T05:12:44.956Z,100.00
2022-08-03T05:15:12.907Z,100.00
2022-08-03T05:17:39.842Z,100.00
2022-08-03T05:20:07.888Z,100.00
2022-08-03T05:22:34.749Z,100.00
2022-08-03T05:25:02.868Z,100.00
2022-08-03T05:27:32.138Z,100.00
2022-08-03T05:30:27.157Z,100.00
2022-08-03T05:32:46.116Z,100.00
2022-08-03T05:36:00.903Z,100.00
2022-08-03T05:37:59.856Z,100.00
2022-08-03T05:40:27.913Z,100.00
2022-08-03T05:42:56.307Z,100.00
2022-08-03T05:45:28.116Z,100.00
2022-08-03T05:47:55.287Z,100.00
2022-08-03T05:50:22.168Z,100.00
2022-08-03T05:52:49.108Z,100.00
2022-08-03T05:55:16.711Z,100.00
2022-08-03T05:57:45.819Z,100.00
2022-08-03T06:00:15.496Z,100.00
2022-08-03T06:02:45.596Z,100.00
2022-08-03T06:05:12.454Z,100.00
2022-08-03T06:07:39.285Z,100.00
2022-08-03T06:10:36.858Z,100.00
2022-08-03T06:12:54.288Z,100.00
2022-08-03T06:15:22.805Z,100.00
2022-08-03T06:17:51.391Z,100.00
2022-08-03T06:20:19.641Z,100.00
2022-08-03T06:22:50.733Z,100.00
2022-08-03T06:25:21.498Z,100.00
2022-08-03T06:27:48.455Z,100.00
2022-08-03T06:30:21.119Z,100.00
2022-08-03T06:32:52.070Z,100.00
2022-08-03T06:35:20.076Z,100.00
2022-08-03T06:37:48.920Z,100.00
2022-08-03T06:40:24.378Z,100.00
2022-08-03T06:42:54.745Z,100.00
2022-08-03T06:45:22.239Z,100.00
2022-08-03T06:48:00.933Z,100.00
2022-08-03T06:50:28.152Z,100.00
2022-08-03T06:52:55.298Z,100.00
2022-08-03T06:55:22.130Z,100.00
2022-08-03T06:57:49.100Z,100.00
2022-08-03T07:00:16.573Z,100.00
2022-08-03T07:02:43.576Z,100.00
2022-08-03T07:05:11.829Z,100.00
2022-08-03T07:07:39.187Z,100.00
2022-08-03T07:10:07.053Z,100.00
2022-08-03T07:12:34.779Z,100.00
2022-08-03T07:15:03.567Z,100.00
2022-08-03T07:17:34.177Z,100.00
2022-08-03T07:20:02.485Z,100.00
2022-08-03T07:22:36.411Z,100.00
2022-08-03T08:37:24.145Z,93.00
2022-08-03T08:39:50.972Z,92.97
2022-08-03T08:42:18.033Z,92.57
2022-08-03T08:44:51.649Z,89.49
2022-08-03T08:47:19.416Z,88.39
2022-08-03T08:50:08.568Z,89.70
2022-08-03T08:52:36.700Z,90.38
2022-08-03T08:55:06.655Z,88.10
2022-08-03T08:57:43.572Z,87.37
2022-08-03T09:00:14.784Z,86.62
2022-08-03T09:02:42.657Z,84.06
2022-08-03T09:05:11.670Z,87.71
2022-08-03T09:07:40.244Z,87.68
2022-08-03T09:10:12.487Z,86.23
2022-08-03T09:12:43.325Z,88.26
2022-08-03T09:15:20.650Z,88.42
2022-08-03T09:17:50.912Z,88.97
2022-08-03T09:20:19.296Z,89.87
2022-08-03T09:22:56.025Z,89.18
2022-08-03T09:25:31.142Z,87.15
2022-08-03T09:28:05.971Z,88.17
2022-08-03T09:30:34.705Z,87.18
2022-08-03T09:33:02.632Z,89.86
2022-08-03T09:35:53.563Z,91.25
2022-08-03T09:38:19.613Z,92.16
2022-08-03T09:40:46.812Z,90.82
2022-08-03T09:43:14.038Z,91.19
2022-08-03T09:45:41.045Z,89.24
2022-08-03T09:48:34.659Z,91.66
2022-08-03T09:51:13.313Z,88.71
2022-08-03T09:53:59.222Z,92.02
2022-08-03T09:56:41.498Z,92.02
2022-08-03T09:59:09.023Z,91.35
2022-08-03T10:01:36.424Z,90.31
2022-08-03T10:04:05.136Z,87.80
2022-08-03T10:06:38.927Z,88.16
2022-08-03T10:09:10.056Z,89.19
2022-08-03T10:11:41.672Z,88.93
2022-08-03T10:14:18.961Z,87.37
2022-08-03T10:16:47.482Z,86.77
2022-08-03T10:19:15.622Z,87.63
2022-08-03T10:21:47.819Z,91.63
2022-08-03T10:24:20.269Z,89.70
2022-08-03T10:26:50.341Z,88.04
2022-08-03T10:29:25.057Z,87.99
2022-08-03T10:31:58.030Z,86.95
2022-08-03T10:34:27.033Z,85.85
2022-08-03T10:36:58.808Z,86.41
2022-08-03T10:39:29.944Z,86.57
2022-08-03T10:41:59.948Z,86.74
2022-08-03T10:44:37.724Z,86.69
2022-08-03T10:47:05.150Z,86.24
2022-08-03T10:49:34.238Z,86.94
2022-08-03T10:52:12.996Z,84.53
2022-08-03T10:55:07.799Z,84.15
2022-08-03T10:57:46.435Z,86.67
2022-08-03T11:00:17.509Z,84.76
2022-08-03T11:03:10.289Z,83.39
2022-08-03T11:05:39.617Z,85.15
2022-08-03T11:08:28.502Z,83.59
2022-08-03T11:11:00.390Z,82.87
2022-08-03T11:13:31.760Z,84.29
2022-08-03T11:16:07.114Z,82.75
2022-08-03T11:18:35.016Z,82.60
2022-08-03T11:21:03.186Z,80.71
2022-08-03T11:24:05.592Z,80.79
2022-08-03T11:26:31.066Z,80.32
2022-08-03T11:29:32.339Z,81.94
2022-08-03T11:31:59.367Z,80.39
2022-08-03T11:34:26.441Z,81.61
2022-08-03T11:37:19.808Z,82.09
2022-08-03T11:39:48.454Z,80.30
2022-08-03T11:42:48.382Z,81.76
2022-08-03T11:45:15.525Z,79.80
2022-08-03T11:47:50.255Z,79.50
2022-08-03T11:50:19.244Z,78.99
2022-08-03T11:52:46.122Z,79.57
2022-08-03T11:55:22.685Z,80.51
2022-08-03T11:58:58.107Z,80.04
2022-08-03T12:00:38.209Z,79.14
2022-08-03T12:03:07.075Z,79.52
2022-08-03T12:05:40.370Z,78.29
2022-08-03T12:08:08.374Z,77.86
2022-08-03T12:10:35.882Z,77.81
2022-08-03T12:14:10.710Z,76.80
2022-08-03T12:15:56.861Z,76.08
2022-08-03T12:18:24.418Z,77.18
2022-08-03T12:20:52.990Z,76.23
2022-08-03T12:23:20.307Z,76.36
2022-08-03T12:25:48.096Z,75.69
2022-08-03T12:28:36.972Z,75.69
2022-08-03T12:31:06.544Z,73.06
2022-08-03T12:33:53.915Z,72.86
2022-08-03T12:36:20.838Z,72.17
2022-08-03T12:38:56.127Z,72.05
2022-08-03T12:41:31.653Z,73.22
2022-08-03T12:43:59.924Z,73.13
2022-08-03T12:46:31.350Z,72.77
2022-08-03T12:49:00.135Z,69.58
2022-08-03T12:51:27.543Z,69.19
2022-08-03T12:53:55.171Z,67.74
2022-08-03T12:56:22.225Z,68.74
2022-08-03T12:58:50.375Z,68.84
2022-08-03T13:01:19.298Z,67.63
2022-08-03T13:03:52.732Z,69.45
2022-08-03T13:06:21.957Z,67.99
2022-08-03T13:08:49.725Z,69.48
2022-08-03T13:11:21.261Z,71.18
2022-08-03T13:13:48.134Z,70.04
2022-08-03T13:16:19.190Z,70.74
2022-08-03T13:18:48.281Z,70.27
2022-08-03T13:21:16.296Z,72.05
2022-08-03T13:23:43.884Z,72.26
2022-08-03T13:26:11.844Z,71.23
2022-08-03T13:28:38.739Z,67.04
2022-08-03T13:31:06.276Z,66.73
2022-08-03T13:33:34.390Z,65.99
2022-08-03T13:36:02.527Z,68.50
2022-08-03T13:38:29.378Z,67.37
2022-08-03T13:40:56.163Z,65.21
2022-08-03T13:43:23.301Z,64.46
2022-08-03T13:45:53.593Z,65.19
2022-08-03T13:48:37.278Z,65.18
2022-08-03T13:51:21.881Z,63.73
2022-08-03T13:53:50.158Z,62.21
2022-08-03T13:56:17.092Z,64.40
2022-08-03T13:58:43.945Z,64.45
2022-08-03T14:01:11.340Z,64.32
2022-08-03T14:03:38.293Z,62.46
2022-08-03T14:06:06.568Z,62.63
2022-08-03T14:08:33.376Z,63.91
2022-08-03T14:11:00.315Z,65.90
2022-08-03T14:13:27.490Z,65.15
2022-08-03T14:16:00.324Z,63.82
2022-08-03T14:18:33.826Z,63.12
2022-08-03T14:21:05.588Z,62.89
2022-08-03T14:23:35.534Z,62.53
2022-08-03T14:26:02.614Z,63.70
2022-08-03T14:28:29.348Z,60.57
2022-08-03T14:30:56.405Z,60.47
2022-08-03T14:33:23.417Z,59.44
2022-08-03T14:35:51.320Z,59.77
2022-08-03T14:38:18.746Z,58.58
2022-08-03T14:40:47.634Z,58.97
2022-08-03T14:43:14.955Z,59.59
2022-08-03T14:45:42.068Z,59.86
2022-08-03T14:50:33.510Z,60.49
2022-08-03T14:50:56.843Z,62.27
2022-08-03T14:53:23.989Z,62.67
2022-08-03T14:55:53.373Z,62.07
2022-08-03T14:58:21.446Z,61.46
2022-08-03T15:00:49.581Z,61.94
2022-08-03T15:03:16.914Z,61.02
2022-08-03T15:05:44.395Z,58.02
2022-08-03T15:08:11.189Z,60.18
2022-08-03T15:10:44.331Z,60.35
2022-08-03T15:13:18.313Z,60.15
2022-08-03T15:15:45.107Z,60.09
2022-08-03T15:18:11.983Z,60.83
2022-08-03T15:20:45.020Z,60.41
2022-08-03T15:23:13.810Z,60.56
2022-08-03T15:26:03.800Z,60.51
2022-08-03T15:28:29.020Z,60.38
2022-08-03T15:30:55.820Z,62.12
2022-08-03T15:33:22.591Z,62.99
2022-08-03T15:35:50.064Z,60.74
2022-08-03T15:38:17.668Z,60.52
2022-08-03T15:40:44.730Z,60.09
2022-08-03T15:43:12.141Z,61.30
2022-08-03T15:45:42.139Z,74.13
2022-08-03T15:48:09.004Z,74.59
2022-08-03T15:50:35.822Z,74.84
2022-08-03T15:53:02.677Z,75.22
2022-08-03T15:55:29.586Z,75.14
2022-08-03T15:59:09.157Z,76.34
2022-08-03T16:00:44.852Z,77.24
2022-08-03T16:03:11.716Z,75.41
2022-08-03T16:05:38.702Z,75.79
2022-08-03T16:08:08.037Z,75.73
2022-08-03T16:10:38.637Z,76.44
2022-08-03T16:13:05.393Z,77.71
2022-08-03T16:15:32.417Z,78.35
2022-08-03T16:18:06.622Z,79.91
2022-08-03T16:20:34.248Z,78.71
2022-08-03T16:23:08.475Z,79.49
2022-08-03T16:25:40.514Z,79.73
2022-08-03T16:28:13.172Z,80.27
2022-08-03T16:30:41.774Z,81.49
2022-08-03T16:33:11.080Z,79.82
2022-08-03T16:35:38.367Z,80.11
2022-08-03T16:38:09.959Z,79.64
2022-08-03T16:40:38.158Z,80.21
2022-08-03T16:43:18.979Z,80.14
2022-08-03T16:45:46.539Z,80.08
2022-08-03T16:48:15.389Z,80.48
2022-08-03T16:50:42.213Z,79.54
2022-08-03T16:53:15.658Z,80.67
2022-08-03T16:55:52.326Z,80.02
2022-08-03T16:58:34.379Z,80.09
2022-08-03T17:01:20.712Z,79.75
2022-08-03T17:04:02.283Z,78.74
2022-08-03T17:06:35.018Z,80.36
2022-08-03T17:09:09.027Z,79.77
2022-08-03T17:11:43.050Z,79.91
2022-08-03T17:14:35.657Z,81.30
2022-08-03T17:17:08.556Z,82.55
2022-08-03T17:19:47.382Z,82.76
2022-08-03T17:22:18.641Z,83.76
2022-08-03T17:24:47.709Z,83.04
2022-08-03T17:28:50.747Z,83.63
2022-08-03T17:30:25.307Z,82.32
2022-08-03T17:32:57.561Z,83.01
2022-08-03T17:35:36.901Z,82.37
2022-08-03T17:38:10.475Z,82.94
2022-08-03T17:40:47.996Z,82.33
2022-08-03T17:44:13.140Z,82.50
2022-08-03T17:46:07.211Z,82.88
2022-08-03T17:48:41.498Z,84.38
2022-08-03T17:51:15.569Z,83.54
2022-08-03T17:53:49.955Z,84.99
2022-08-03T17:56:44.575Z,85.20
2022-08-03T17:59:51.373Z,86.32
2022-08-03T18:02:48.253Z,86.59
2022-08-03T18:05:18.379Z,86.06
2022-08-03T18:08:01.660Z,85.95
2022-08-03T18:10:49.747Z,87.01
2022-08-03T18:13:24.482Z,87.84
2022-08-03T18:15:56.403Z,88.89
2022-08-03T18:18:32.659Z,89.82
2022-08-03T18:21:04.529Z,89.95
2022-08-03T18:23:37.905Z,91.14
2022-08-03T18:26:17.147Z,90.89
2022-08-03T18:28:45.827Z,91.35
2022-08-03T18:31:33.213Z,92.08
2022-08-03T18:34:32.678Z,91.57
2022-08-03T18:36:56.016Z,92.79
2022-08-03T18:39:28.328Z,93.20
2022-08-03T18:41:57.686Z,93.49
2022-08-03T18:44:52.497Z,94.04
2022-08-03T18:47:52.000Z,95.65
2022-08-03T18:50:30.726Z,96.16
2022-08-03T18:53:15.738Z,96.61
2022-08-03T18:56:02.316Z,97.65
2022-08-03T18:58:41.580Z,98.46
2022-08-03T19:01:57.420Z,99.71
2022-08-03T19:04:10.460Z,100.00
2022-08-03T19:06:44.516Z,100.00
2022-08-03T19:09:23.186Z,100.00
2022-08-03T19:12:26.016Z,100.00
2022-08-03T19:14:54.378Z,100.00
2022-08-03T19:17:29.450Z,100.00
2022-08-03T19:20:15.085Z,100.00
2022-08-03T19:22:46.019Z,100.00
2022-08-03T19:25:14.657Z,100.00
2022-08-03T19:27:47.346Z,100.00
2022-08-03T19:30:38.535Z,100.00
2022-08-03T19:33:09.258Z,100.00
2022-08-03T19:35:55.022Z,100.00
2022-08-03T19:41:15.013Z,100.00
2022-08-03T19:43:53.694Z,100.00
2022-08-03T19:46:30.044Z,100.00
2022-08-03T19:49:02.707Z,100.00
2022-08-03T19:52:01.514Z,100.00
2022-08-03T19:54:29.965Z,100.00
2022-08-03T19:57:01.909Z,100.00
2022-08-03T19:59:37.866Z,100.00
2022-08-03T20:05:03.868Z,100.00
2022-08-03T20:07:34.410Z,100.00
2022-08-03T20:10:04.363Z,100.00
2022-08-03T20:12:37.120Z,100.00
2022-08-03T20:15:09.265Z,100.00
2022-08-03T20:17:55.299Z,100.00
2022-08-03T20:20:26.421Z,100.00
2022-08-03T20:22:57.786Z,100.00
2022-08-03T20:25:38.311Z,100.00
2022-08-03T20:28:14.562Z,100.00
2022-08-03T20:33:48.679Z,100.00
2022-08-03T20:36:17.758Z,100.00
2022-08-03T20:38:47.134Z,100.00
2022-08-03T20:41:14.752Z,100.00
2022-08-03T20:43:41.861Z,100.00
2022-08-03T20:46:32.680Z,100.00
2022-08-03T20:48:58.955Z,100.00
2022-08-03T20:51:48.913Z,100.00
2022-08-03T20:54:29.287Z,100.00
2022-08-03T20:56:58.082Z,100.00
2022-08-03T20:59:35.089Z,100.00
2022-08-03T21:02:19.301Z,100.00
2022-08-03T21:04:56.309Z,100.00
2022-08-03T21:08:04.006Z,100.00
2022-08-03T21:10:15.394Z,100.00
2022-08-03T21:12:50.218Z,100.00
2022-08-03T21:13:02.595Z,100.00
2022-08-03T21:13:03.417Z,100.00
2022-08-03T21:13:14.223Z,100.00
2022-08-03T21:16:06.884Z,100.00
2022-08-03T21:18:13.062Z,100.00
2022-08-03T21:20:43.714Z,100.00
2022-08-03T21:23:12.904Z,100.00
2022-08-03T21:26:01.368Z,100.00
2022-08-03T21:28:29.390Z,100.00
2022-08-03T21:30:58.847Z,100.00
2022-08-03T21:33:27.892Z,100.00
2022-08-03T21:35:54.970Z,100.00
2022-08-03T21:38:30.213Z,100.00
2022-08-03T21:40:57.534Z,100.00
2022-08-03T21:43:24.681Z,100.00
2022-08-03T21:45:59.179Z,100.00
2022-08-03T21:48:28.487Z,100.00
2022-08-03T21:50:56.232Z,100.00
2022-08-03T21:53:25.780Z,100.00
2022-08-03T21:56:18.321Z,100.00
2022-08-03T21:58:51.400Z,100.00
2022-08-03T22:01:22.209Z,100.00
2022-08-03T22:03:54.145Z,100.00
2022-08-03T22:06:23.947Z,100.00
2022-08-03T22:08:54.803Z,100.00
2022-08-03T22:11:22.201Z,100.00
2022-08-03T22:13:49.762Z,100.00
2022-08-03T22:16:17.169Z,100.00
2022-08-03T22:18:46.114Z,100.00
2022-08-03T22:21:35.556Z,100.00
2022-08-03T22:24:05.944Z,100.00
2022-08-03T22:26:35.328Z,100.00
2022-08-03T22:29:07.355Z,100.00
2022-08-03T22:31:58.422Z,100.00
2022-08-03T22:34:26.905Z,100.00
2022-08-03T22:37:05.001Z,100.00
2022-08-03T22:39:33.483Z,100.00
2022-08-03T22:42:05.469Z,100.00
2022-08-03T22:44:32.781Z,100.00
2022-08-03T22:47:00.285Z,100.00
2022-08-03T22:49:29.323Z,100.00
2022-08-03T22:51:59.191Z,100.00
2022-08-03T22:54:26.463Z,100.00
2022-08-03T22:56:53.573Z,100.00
2022-08-03T22:59:40.048Z,100.00
2022-08-03T23:02:16.028Z,100.00
2022-08-03T23:04:51.470Z,100.00
2022-08-03T23:07:29.128Z,100.00
2022-08-03T23:10:00.110Z,100.00
2022-08-03T23:12:29.883Z,100.00
2022-08-03T23:15:06.005Z,100.00
2022-08-03T23:17:33.934Z,100.00
2022-08-03T23:20:26.784Z,100.00
2022-08-03T23:22:57.846Z,100.00
2022-08-03T23:25:27.663Z,100.00
2022-08-03T23:28:05.449Z,100.00
2022-08-03T23:30:36.513Z,100.00
2022-08-03T23:33:05.246Z,100.00
2022-08-03T23:36:28.845Z,100.00
2022-08-03T23:38:45.347Z,100.00
2022-08-03T23:41:15.623Z,100.00
2022-08-03T23:43:52.042Z,100.00
2022-08-03T23:46:27.427Z,100.00
2022-08-03T23:49:00.079Z,100.00
2022-08-03T23:51:45.597Z,100.00
2022-08-03T23:54:38.833Z,100.00
2022-08-03T23:57:16.198Z,100.00
2022-08-03T23:59:57.281Z,100.00
